createdAt,value
2018-08-04T00:00:05.962Z,4.47
2018-08-04T00:02:33.370Z,3.97
2018-08-04T00:05:00.691Z,3.80
2018-08-04T00:07:28.048Z,3.90
2018-08-04T00:09:55.433Z,5.07
2018-08-04T00:12:22.826Z,4.80
2018-08-04T00:14:50.183Z,5.63
2018-08-04T00:17:17.637Z,3.87
2018-08-04T00:19:45.056Z,3.90
2018-08-04T00:22:12.471Z,3.50
2018-08-04T00:24:39.896Z,3.63
2018-08-04T00:27:07.264Z,3.90
2018-08-04T00:29:34.719Z,3.77
2018-08-04T00:32:02.112Z,4.00
2018-08-04T00:34:29.477Z,6.30
2018-08-04T00:36:56.890Z,5.27
2018-08-04T00:39:24.361Z,4.47
2018-08-04T00:41:51.789Z,4.77
2018-08-04T00:44:22.018Z,4.43
2018-08-04T00:46:49.364Z,4.40
2018-08-04T00:49:16.692Z,4.90
2018-08-04T00:51:44.076Z,5.17
2018-08-04T00:54:11.548Z,5.97
2018-08-04T00:56:38.920Z,4.50
2018-08-04T00:59:06.341Z,4.20
2018-08-04T01:01:33.673Z,5.03
2018-08-04T01:04:01.079Z,4.90
2018-08-04T01:06:28.542Z,6.73
2018-08-04T01:08:55.872Z,4.60
2018-08-04T01:11:23.210Z,6.63
2018-08-04T01:13:50.739Z,5.27
2018-08-04T01:16:18.347Z,5.00
2018-08-04T01:18:46.001Z,5.50
2018-08-04T01:21:13.402Z,4.87
2018-08-04T01:23:40.830Z,6.47
2018-08-04T01:26:08.176Z,4.53
2018-08-04T01:28:35.582Z,6.20
2018-08-04T01:31:02.991Z,4.47
2018-08-04T01:33:30.365Z,7.47
2018-08-04T01:36:04.002Z,4.83
2018-08-04T01:38:31.457Z,5.00
2018-08-04T01:40:58.818Z,5.80
2018-08-04T01:43:36.715Z,4.83
2018-08-04T01:46:07.041Z,4.37
2018-08-04T01:48:34.454Z,6.10
2018-08-04T01:51:01.805Z,4.50
2018-08-04T01:53:29.240Z,3.80
2018-08-04T01:55:56.651Z,5.50
2018-08-04T01:58:24.860Z,4.20
2018-08-04T02:00:52.469Z,3.80
2018-08-04T02:03:19.842Z,4.60
2018-08-04T02:05:47.158Z,4.23
2018-08-04T02:08:14.565Z,5.77
2018-08-04T02:10:44.832Z,6.83
2018-08-04T02:13:12.226Z,3.93
2018-08-04T02:15:39.586Z,3.53
2018-08-04T02:18:09.339Z,6.43
2018-08-04T02:20:36.649Z,5.53
2018-08-04T02:23:03.997Z,3.80
2018-08-04T02:25:32.597Z,3.47
2018-08-04T02:28:00.118Z,3.57
2018-08-04T02:30:27.475Z,3.20
2018-08-04T02:32:54.871Z,3.40
2018-08-04T02:35:22.318Z,4.10
2018-08-04T02:37:49.715Z,3.57
2018-08-04T02:40:17.147Z,2.80
2018-08-04T02:42:44.542Z,3.23
2018-08-04T02:45:11.978Z,3.50
2018-08-04T02:47:39.391Z,5.30
2018-08-04T02:50:07.457Z,4.43
2018-08-04T02:52:34.981Z,4.63
2018-08-04T02:55:02.338Z,3.80
2018-08-04T02:57:32.566Z,3.20
2018-08-04T02:59:59.934Z,3.33
2018-08-04T03:02:27.251Z,4.40
2018-08-04T03:04:54.606Z,4.47
2018-08-04T03:07:22.171Z,3.77
2018-08-04T03:09:49.641Z,3.63
2018-08-04T03:12:20.723Z,3.87
2018-08-04T03:14:48.104Z,3.07
2018-08-04T03:17:15.637Z,4.10
2018-08-04T03:19:43.372Z,3.03
2018-08-04T03:22:10.748Z,4.00
2018-08-04T03:24:38.102Z,3.43
2018-08-04T03:27:05.586Z,3.77
2018-08-04T03:29:32.929Z,3.13
2018-08-04T03:32:00.288Z,3.40
2018-08-04T03:34:29.542Z,5.60
2018-08-04T03:36:57.650Z,4.00
2018-08-04T03:39:25.018Z,5.37
2018-08-04T03:41:52.473Z,3.47
2018-08-04T03:44:19.778Z,3.63
2018-08-04T03:46:47.162Z,3.70
2018-08-04T03:49:14.655Z,3.63
2018-08-04T03:51:42.172Z,3.40
2018-08-04T03:54:11.024Z,4.70
2018-08-04T03:56:38.389Z,3.03
2018-08-04T03:59:05.857Z,2.97
2018-08-04T04:01:33.223Z,5.10
2018-08-04T04:04:00.593Z,2.87
2018-08-04T04:06:28.738Z,3.60
2018-08-04T04:08:56.126Z,4.00
2018-08-04T04:11:25.174Z,3.20
2018-08-04T04:13:52.525Z,3.73
2018-08-04T04:16:19.860Z,3.03
2018-08-04T04:18:50.509Z,4.10
2018-08-04T04:21:18.215Z,3.97
2018-08-04T04:23:45.585Z,2.60
2018-08-04T04:26:13.112Z,2.80
2018-08-04T04:28:40.600Z,3.83
2018-08-04T04:31:07.966Z,2.60
2018-08-04T04:33:35.337Z,3.17
2018-08-04T04:36:02.749Z,2.57
2018-08-04T04:38:30.148Z,2.83
2018-08-04T04:40:57.492Z,4.50
2018-08-04T04:43:24.805Z,6.00
2018-08-04T04:45:54.717Z,3.97
2018-08-04T04:48:22.116Z,2.50
2018-08-04T04:50:49.454Z,3.30
2018-08-04T04:53:16.823Z,2.40
2018-08-04T04:55:44.370Z,3.87
2018-08-04T04:58:11.866Z,2.70
2018-08-04T05:00:39.214Z,3.33
2018-08-04T05:03:06.541Z,3.17
2018-08-04T05:05:34.155Z,2.60
2018-08-04T05:08:01.617Z,3.67
2018-08-04T05:10:28.999Z,3.17
2018-08-04T05:12:56.362Z,3.17
2018-08-04T05:15:23.694Z,4.27
2018-08-04T05:17:51.072Z,3.17
2018-08-04T05:20:18.554Z,3.80
2018-08-04T05:22:45.961Z,2.70
2018-08-04T05:25:13.389Z,3.20
2018-08-04T05:27:40.679Z,3.00
2018-08-04T05:30:08.165Z,2.70
2018-08-04T05:32:35.705Z,3.33
2018-08-04T05:35:03.157Z,6.00
2018-08-04T05:37:30.603Z,3.17
2018-08-04T05:39:57.875Z,2.53
2018-08-04T05:42:25.356Z,2.13
2018-08-04T05:44:52.736Z,2.30
2018-08-04T05:47:20.153Z,2.53
2018-08-04T05:49:47.953Z,3.00
2018-08-04T05:52:15.334Z,4.03
2018-08-04T05:54:42.757Z,5.23
2018-08-04T05:57:10.148Z,2.90
2018-08-04T05:59:38.226Z,7.20
2018-08-04T06:02:05.594Z,4.90
2018-08-04T06:04:32.909Z,3.03
2018-08-04T06:07:01.056Z,3.60
2018-08-04T06:09:28.776Z,3.50
2018-08-04T06:11:56.180Z,2.57
2018-08-04T06:14:23.462Z,2.83
2018-08-04T06:16:51.305Z,5.33
2018-08-04T06:19:18.977Z,2.80
2018-08-04T06:21:46.333Z,3.40
2018-08-04T06:24:13.618Z,6.33
2018-08-04T06:26:41.129Z,2.93
2018-08-04T06:29:10.802Z,4.10
2018-08-04T06:31:39.284Z,6.73
2018-08-04T06:34:06.673Z,3.67
2018-08-04T06:36:34.028Z,6.50
2018-08-04T06:39:01.361Z,4.87
2018-08-04T06:41:28.747Z,5.33
2018-08-04T06:43:56.044Z,4.10
2018-08-04T06:46:23.371Z,4.43
2018-08-04T06:48:50.777Z,4.40
2018-08-04T06:51:18.256Z,4.80
2018-08-04T06:53:45.755Z,4.13
2018-08-04T06:56:13.070Z,3.03
2018-08-04T06:58:40.520Z,4.00
2018-08-04T07:01:09.362Z,2.60
2018-08-04T07:03:36.677Z,3.73
2018-08-04T07:06:04.313Z,3.40
2018-08-04T07:08:31.713Z,7.93
2018-08-04T07:10:59.076Z,10.50
2018-08-04T07:13:26.425Z,3.40
2018-08-04T07:15:53.854Z,4.20
2018-08-04T07:18:21.404Z,4.80
2018-08-04T07:20:48.789Z,4.20
2018-08-04T07:23:17.151Z,4.00
2018-08-04T07:25:44.457Z,4.83
2018-08-04T07:28:11.761Z,5.10
2018-08-04T07:30:39.201Z,4.47
2018-08-04T07:33:06.630Z,5.67
2018-08-04T07:35:33.972Z,5.03
2018-08-04T07:38:01.289Z,6.20
2018-08-04T07:40:28.834Z,5.97
2018-08-04T07:42:56.178Z,6.57
2018-08-04T07:45:23.637Z,4.37
2018-08-04T07:47:50.969Z,4.73
2018-08-04T07:50:18.447Z,4.87
2018-08-04T07:52:45.790Z,4.33
2018-08-04T07:55:13.146Z,5.50
2018-08-04T07:57:40.777Z,4.60
2018-08-04T08:00:09.004Z,5.80
2018-08-04T08:02:36.491Z,4.67
2018-08-04T08:05:04.658Z,4.97
2018-08-04T08:07:32.317Z,6.53
2018-08-04T08:10:00.059Z,4.77
2018-08-04T08:12:27.587Z,4.80
2018-08-04T08:14:55.202Z,5.07
2018-08-04T08:17:22.706Z,4.23
2018-08-04T08:19:50.249Z,5.00
2018-08-04T08:22:17.889Z,4.40
2018-08-04T08:24:45.917Z,5.70
2018-08-04T08:27:13.438Z,4.67
2018-08-04T08:29:41.017Z,4.37
2018-08-04T08:32:08.682Z,4.63
2018-08-04T08:34:36.200Z,3.50
2018-08-04T08:37:06.196Z,3.90
2018-08-04T08:39:33.522Z,4.30
2018-08-04T08:42:00.996Z,4.47
2018-08-04T08:44:28.345Z,4.67
2018-08-04T08:46:55.742Z,6.27
2018-08-04T08:49:23.293Z,6.10
2018-08-04T08:51:50.711Z,5.53
2018-08-04T08:54:19.820Z,4.77
2018-08-04T08:56:47.273Z,5.67
2018-08-04T08:59:15.020Z,5.57
2018-08-04T09:01:42.619Z,5.80
2018-08-04T09:04:10.273Z,5.33
2018-08-04T09:06:37.850Z,5.57
2018-08-04T09:09:06.827Z,4.50
2018-08-04T09:11:34.434Z,8.97
2018-08-04T09:14:02.412Z,6.87
2018-08-04T09:16:29.854Z,3.20
2018-08-04T09:18:57.415Z,4.93
2018-08-04T09:21:24.773Z,7.40
2018-08-04T09:23:52.084Z,6.33
2018-08-04T09:26:19.781Z,5.70
2018-08-04T09:28:47.311Z,4.03
2018-08-04T09:31:14.937Z,4.03
2018-08-04T09:33:42.301Z,2.83
2018-08-04T09:36:09.653Z,3.27
2018-08-04T09:38:37.625Z,2.93
2018-08-04T09:41:05.285Z,2.23
2018-08-04T09:43:32.632Z,4.77
2018-08-04T09:46:00.398Z,2.77
2018-08-04T09:48:27.753Z,2.77
2018-08-04T09:50:55.078Z,2.37
2018-08-04T09:53:22.492Z,2.40
2018-08-04T09:55:49.843Z,2.40
2018-08-04T09:58:17.216Z,3.17
2018-08-04T10:00:50.428Z,2.13
2018-08-04T10:03:17.817Z,2.70
2018-08-04T10:05:45.248Z,2.73
2018-08-04T10:08:15.474Z,2.80
2018-08-04T10:10:42.833Z,1.97
2018-08-04T10:13:10.217Z,1.70
2018-08-04T10:15:37.568Z,1.90
2018-08-04T10:18:05.153Z,2.00
2018-08-04T10:20:32.477Z,1.77
2018-08-04T10:22:59.795Z,1.97
2018-08-04T10:25:28.191Z,1.80
2018-08-04T10:27:55.538Z,3.17
2018-08-04T10:30:22.920Z,3.33
2018-08-04T10:32:50.273Z,2.07
2018-08-04T10:35:17.839Z,2.10
2018-08-04T10:37:45.407Z,2.37
2018-08-04T10:40:12.780Z,1.83
2018-08-04T10:42:40.140Z,2.70
2018-08-04T10:45:15.650Z,2.70
2018-08-04T10:47:43.006Z,1.93
2018-08-04T10:50:12.022Z,1.70
2018-08-04T10:52:39.505Z,1.80
2018-08-04T10:55:07.012Z,2.10
2018-08-04T10:57:34.331Z,2.10
2018-08-04T11:00:01.650Z,2.17
2018-08-04T11:02:29.265Z,1.73
2018-08-04T11:04:56.550Z,1.70
2018-08-04T11:07:23.993Z,1.90
2018-08-04T11:09:51.342Z,1.57
2018-08-04T11:12:18.827Z,2.10
2018-08-04T11:14:46.282Z,1.90
2018-08-04T11:17:13.613Z,1.60
2018-08-04T11:19:45.882Z,2.50
2018-08-04T11:22:13.243Z,2.20
2018-08-04T11:24:40.682Z,2.53
2018-08-04T11:27:10.933Z,2.37
2018-08-04T11:29:56.468Z,2.93
2018-08-04T11:32:27.793Z,1.80
2018-08-04T11:34:55.151Z,3.57
2018-08-04T11:37:22.530Z,2.10
2018-08-04T11:39:49.913Z,1.97
2018-08-04T11:42:17.240Z,4.00
2018-08-04T11:47:17.169Z,2.07
2018-08-04T11:49:44.573Z,2.30
2018-08-04T11:52:12.019Z,2.23
2018-08-04T11:54:39.575Z,1.90
2018-08-04T11:57:06.969Z,2.43
2018-08-04T11:59:34.548Z,2.80
2018-08-04T12:02:03.426Z,2.40
2018-08-04T12:04:30.715Z,2.40
2018-08-04T12:06:58.053Z,2.27
2018-08-04T12:09:25.386Z,2.77
2018-08-04T12:11:52.709Z,2.00
2018-08-04T12:14:20.038Z,3.40
2018-08-04T12:16:52.037Z,2.30
2018-08-04T12:19:19.592Z,2.07
2018-08-04T12:21:47.189Z,2.40
2018-08-04T12:24:14.862Z,1.90
2018-08-04T12:26:42.463Z,2.30
2018-08-04T12:29:14.469Z,2.40
2018-08-04T12:31:41.854Z,2.00
2018-08-04T12:34:09.226Z,1.97
2018-08-04T12:36:36.605Z,2.13
2018-08-04T12:39:06.842Z,2.37
2018-08-04T12:41:37.867Z,2.00
2018-08-04T12:44:07.572Z,2.30
2018-08-04T12:46:35.051Z,2.53
2018-08-04T12:49:02.403Z,2.07
2018-08-04T12:51:29.743Z,2.60
2018-08-04T12:53:57.053Z,2.13
2018-08-04T12:56:29.128Z,2.90
2018-08-04T12:58:56.762Z,2.47
2018-08-04T13:01:24.543Z,3.50
2018-08-04T13:03:52.061Z,2.40
2018-08-04T13:06:19.917Z,2.20
2018-08-04T13:08:47.467Z,2.20
2018-08-04T13:11:19.066Z,2.20
2018-08-04T13:13:46.665Z,1.90
2018-08-04T13:16:14.190Z,2.60
2018-08-04T13:18:41.782Z,2.37
2018-08-04T13:21:09.391Z,2.40
2018-08-04T13:23:41.146Z,2.00
2018-08-04T13:26:09.800Z,2.17
2018-08-04T13:28:37.367Z,2.37
2018-08-04T13:31:04.921Z,2.00
2018-08-04T13:33:32.552Z,3.20
2018-08-04T13:36:00.173Z,2.43
2018-08-04T13:38:29.589Z,2.27
2018-08-04T13:40:57.229Z,1.70
2018-08-04T13:43:24.819Z,2.10
2018-08-04T13:45:52.387Z,2.10
2018-08-04T13:48:19.954Z,2.03
2018-08-04T13:50:47.529Z,2.47
2018-08-04T13:53:15.158Z,2.23
2018-08-04T13:55:42.722Z,4.20
2018-08-04T13:58:10.300Z,2.30
2018-08-04T14:00:37.870Z,2.40
2018-08-04T14:03:05.501Z,2.57
2018-08-04T14:05:33.031Z,2.57
2018-08-04T14:08:00.624Z,1.90
2018-08-04T14:10:28.160Z,2.10
2018-08-04T14:12:55.665Z,1.80
2018-08-04T14:15:23.355Z,2.00
2018-08-04T14:17:50.917Z,3.97
2018-08-04T14:20:18.494Z,1.60
2018-08-04T14:22:46.066Z,1.73
2018-08-04T14:25:13.610Z,1.80
2018-08-04T14:27:41.268Z,2.63
2018-08-04T14:30:09.613Z,2.83
2018-08-04T14:32:37.484Z,1.67
2018-08-04T14:35:05.575Z,2.90
2018-08-04T14:37:33.477Z,1.80
2018-08-04T14:40:01.056Z,1.93
2018-08-04T14:42:28.633Z,1.57
2018-08-04T14:44:56.192Z,1.73
2018-08-04T14:47:23.801Z,1.97
2018-08-04T14:49:51.378Z,1.90
2018-08-04T14:52:19.013Z,1.63
2018-08-04T14:54:46.720Z,2.03
2018-08-04T14:57:14.289Z,1.70
2018-08-04T14:59:41.821Z,1.83
2018-08-04T15:02:09.372Z,1.50
2018-08-04T15:04:36.991Z,1.60
2018-08-04T15:07:04.840Z,3.30
2018-08-04T15:09:32.439Z,1.60
2018-08-04T15:11:59.992Z,4.20
2018-08-04T15:14:27.544Z,2.00
2018-08-04T15:16:55.053Z,1.80
2018-08-04T15:19:22.580Z,2.53
2018-08-04T15:21:50.135Z,2.70
2018-08-04T15:24:17.652Z,3.00
2018-08-04T15:26:45.628Z,1.40
2018-08-04T15:29:13.168Z,1.50
2018-08-04T15:31:40.698Z,1.53
2018-08-04T15:34:08.180Z,2.20
2018-08-04T15:36:35.684Z,1.70
2018-08-04T15:39:04.913Z,2.23
2018-08-04T15:41:32.530Z,1.63
2018-08-04T15:44:00.172Z,1.97
2018-08-04T15:46:27.727Z,1.50
2018-08-04T15:48:55.246Z,1.77
2018-08-04T15:51:22.798Z,1.70
2018-08-04T15:53:50.349Z,1.87
2018-08-04T15:56:17.905Z,2.37
2018-08-04T15:58:45.508Z,1.90
2018-08-04T16:01:13.036Z,2.70
2018-08-04T16:03:40.670Z,2.53
2018-08-04T16:06:08.247Z,2.70
2018-08-04T16:08:35.849Z,2.00
2018-08-04T16:11:03.391Z,1.90
2018-08-04T16:13:31.063Z,1.40
2018-08-04T16:15:58.612Z,1.37
2018-08-04T16:18:26.198Z,2.33
2018-08-04T16:20:53.766Z,2.77
2018-08-04T16:23:21.274Z,1.60
2018-08-04T16:25:48.821Z,1.97
2018-08-04T16:28:16.405Z,1.97
2018-08-04T16:30:43.933Z,1.80
2018-08-04T16:33:11.497Z,1.73
2018-08-04T16:35:39.069Z,2.50
2018-08-04T16:38:06.661Z,1.57
2018-08-04T16:40:34.231Z,1.87
2018-08-04T16:43:01.776Z,2.07
2018-08-04T16:45:29.311Z,1.77
2018-08-04T16:47:56.890Z,2.33
2018-08-04T16:50:24.432Z,1.60
2018-08-04T16:52:51.977Z,3.53
2018-08-04T16:55:19.789Z,2.67
2018-08-04T16:57:47.371Z,1.80
2018-08-04T17:00:15.009Z,2.00
2018-08-04T17:02:42.557Z,1.70
2018-08-04T17:05:10.161Z,2.20
2018-08-04T17:07:37.693Z,1.50
2018-08-04T17:10:05.270Z,2.43
2018-08-04T17:12:32.833Z,2.27
2018-08-04T17:15:00.566Z,4.53
2018-08-04T17:17:28.182Z,2.07
2018-08-04T17:19:55.715Z,2.20
2018-08-04T17:22:23.264Z,3.30
2018-08-04T17:24:51.000Z,2.23
2018-08-04T17:27:18.781Z,2.40
2018-08-04T17:29:46.351Z,2.30
2018-08-04T17:32:13.860Z,2.43
2018-08-04T17:34:41.552Z,3.20
2018-08-04T17:37:09.141Z,2.63
2018-08-04T17:39:36.872Z,4.33
2018-08-04T17:42:04.407Z,2.60
2018-08-04T17:44:31.973Z,3.93
2018-08-04T17:46:59.470Z,3.17
2018-08-04T17:49:27.064Z,3.37
2018-08-04T17:51:54.752Z,5.30
2018-08-04T17:54:22.440Z,2.37
2018-08-04T17:56:50.052Z,2.87
2018-08-04T17:59:17.552Z,3.33
2018-08-04T18:01:45.182Z,2.77
2018-08-04T18:04:12.788Z,2.90
2018-08-04T18:06:40.561Z,3.00
2018-08-04T18:09:09.235Z,2.43
2018-08-04T18:11:37.827Z,3.17
2018-08-04T18:14:05.374Z,2.87
2018-08-04T18:16:33.598Z,3.90
2018-08-04T18:19:01.333Z,5.00
2018-08-04T18:21:28.981Z,3.63
2018-08-04T18:23:56.570Z,2.83
2018-08-04T18:26:24.241Z,2.90
2018-08-04T18:28:51.863Z,3.37
2018-08-04T18:31:19.588Z,4.17
2018-08-04T18:33:47.251Z,3.50
2018-08-04T18:36:14.973Z,3.10
2018-08-04T18:38:42.532Z,3.80
2018-08-04T18:41:10.155Z,3.17
2018-08-04T18:43:38.843Z,2.70
2018-08-04T18:46:06.602Z,3.80
2018-08-04T18:48:34.163Z,2.90
2018-08-04T18:51:01.743Z,3.20
2018-08-04T18:53:29.304Z,3.20
2018-08-04T18:55:56.900Z,4.50
2018-08-04T18:58:24.396Z,3.03
2018-08-04T19:00:51.938Z,2.90
2018-08-04T19:03:19.573Z,3.07
2018-08-04T19:05:47.158Z,2.90
2018-08-04T19:08:14.751Z,3.47
2018-08-04T19:10:42.310Z,2.60
2018-08-04T19:13:09.852Z,2.80
2018-08-04T19:15:37.420Z,2.60
2018-08-04T19:18:05.471Z,2.90
2018-08-04T19:20:33.016Z,3.10
2018-08-04T19:23:00.644Z,3.70
2018-08-04T19:25:28.224Z,3.70
2018-08-04T19:27:56.015Z,2.80
2018-08-04T19:30:25.489Z,4.10
2018-08-04T19:32:53.586Z,3.60
2018-08-04T19:35:21.128Z,3.33
2018-08-04T19:37:48.740Z,3.27
2018-08-04T19:40:16.346Z,3.40
2018-08-04T19:42:43.897Z,3.30
2018-08-04T19:45:11.415Z,4.43
2018-08-04T19:47:38.894Z,4.03
2018-08-04T19:50:06.511Z,6.10
2018-08-04T19:52:34.101Z,4.17
2018-08-04T19:55:01.838Z,3.00
2018-08-04T19:57:29.453Z,2.80
2018-08-04T19:59:56.966Z,5.53
2018-08-04T20:02:24.489Z,5.20
2018-08-04T20:04:51.988Z,4.17
2018-08-04T20:07:19.804Z,2.57
2018-08-04T20:09:47.383Z,2.80
2018-08-04T20:12:14.934Z,3.93
2018-08-04T20:14:42.986Z,3.07
2018-08-04T20:17:10.511Z,3.40
2018-08-04T20:19:38.054Z,4.60
2018-08-04T20:22:10.223Z,5.53
2018-08-04T20:24:37.838Z,2.83
2018-08-04T20:27:05.548Z,2.87
2018-08-04T20:29:33.143Z,3.00
2018-08-04T20:32:00.706Z,2.50
2018-08-04T20:34:28.260Z,2.77
2018-08-04T20:36:55.865Z,2.90
2018-08-04T20:39:23.408Z,2.60
2018-08-04T20:41:50.980Z,2.40
2018-08-04T20:44:18.564Z,2.50
2018-08-04T20:46:46.328Z,3.50
2018-08-04T20:49:13.835Z,2.90
2018-08-04T20:51:41.410Z,3.33
2018-08-04T20:54:09.073Z,2.30
2018-08-04T20:56:36.741Z,2.70
2018-08-04T20:59:04.346Z,3.43
2018-08-04T21:02:08.112Z,4.23
2018-08-04T21:04:35.983Z,2.60
2018-08-04T21:07:04.643Z,2.50
2018-08-04T21:09:32.184Z,2.87
2018-08-04T21:11:59.583Z,2.37
2018-08-04T21:14:27.798Z,2.77
2018-08-04T21:16:56.116Z,4.60
2018-08-04T21:19:24.128Z,2.47
2018-08-04T21:21:51.517Z,2.33
2018-08-04T21:26:53.629Z,2.13
2018-08-04T21:29:21.702Z,2.80
2018-08-04T21:31:49.185Z,5.83
2018-08-04T21:34:16.646Z,2.00
2018-08-04T21:36:44.069Z,2.37
2018-08-04T21:39:17.005Z,3.93
2018-08-04T21:41:46.010Z,2.77
2018-08-04T21:44:13.559Z,2.40
2018-08-04T21:46:43.525Z,2.37
2018-08-04T21:49:10.887Z,2.30
2018-08-04T21:51:44.540Z,3.20
2018-08-04T21:54:13.015Z,2.17
2018-08-04T21:56:40.958Z,3.10
2018-08-04T21:59:08.991Z,2.40
2018-08-04T22:01:36.381Z,2.73
2018-08-04T22:04:03.738Z,3.40
2018-08-04T22:06:46.918Z,4.23
2018-08-04T22:09:19.790Z,2.20
2018-08-04T22:11:52.217Z,3.40
2018-08-04T22:14:19.753Z,2.87
2018-08-04T22:16:47.171Z,2.00
2018-08-04T22:19:14.594Z,2.00
2018-08-04T22:21:41.919Z,2.30
2018-08-04T22:24:09.993Z,2.50
2018-08-04T22:26:37.334Z,2.53
2018-08-04T22:29:06.442Z,3.07
2018-08-04T22:31:33.821Z,3.07
2018-08-04T22:34:01.198Z,2.53
2018-08-04T22:36:28.565Z,3.67
2018-08-04T22:38:56.068Z,2.40
2018-08-04T22:41:23.382Z,3.53
2018-08-04T22:43:50.709Z,2.10
2018-08-04T22:46:18.038Z,3.00
2018-08-04T22:48:46.980Z,2.60
2018-08-04T22:51:19.093Z,3.10
2018-08-04T22:53:46.891Z,2.47
2018-08-04T22:56:14.573Z,5.30
2018-08-04T22:58:42.193Z,2.77
2018-08-04T23:01:09.821Z,3.33
2018-08-04T23:03:37.385Z,2.30
2018-08-04T23:06:05.214Z,2.63
2018-08-04T23:08:32.782Z,2.73
2018-08-04T23:11:00.346Z,3.20
2018-08-04T23:13:27.903Z,2.53
2018-08-04T23:15:58.376Z,3.10
2018-08-04T23:18:27.484Z,3.00
2018-08-04T23:20:54.900Z,2.63
2018-08-04T23:23:22.334Z,4.70
2018-08-04T23:25:49.723Z,2.63
2018-08-04T23:28:17.067Z,2.67
2018-08-04T23:30:47.641Z,2.40
2018-08-04T23:33:14.997Z,3.47
2018-08-04T23:35:42.386Z,2.57
2018-08-04T23:38:09.986Z,2.80
2018-08-04T23:40:37.552Z,2.90
2018-08-04T23:46:07.939Z,4.40
2018-08-04T23:48:35.264Z,2.77
2018-08-04T23:51:02.789Z,2.80
2018-08-04T23:53:30.212Z,3.03
2018-08-04T23:55:57.579Z,4.83
2018-08-04T23:58:24.986Z,4.17
